Kennett, Missouri
Current Conditions -  °F | °C
As of 12:53 PM on Friday 24 Oct 2014 (Local Time) from KHKA Reporting Station
Broken Clouds Broken Clouds  
Wind Chill: 22°   Ceiling: 4300
Heat Index: 22°   Visibility: 10mi
Dew Point: 11°   Wind: 0mph
Humidity: 48%   Direction: NA
Pressure: 30.12"   Gusts: NA
Location:  36.24°N, 90.05°W
Report Text: KHKA 241753Z AUTO 00000KT 10SM BKN043 22/11 A3012 RMK AO2 SLP200 T02220106 10222 20061 58014
Loading
Personal Weather Stations






























Interactive Weather Map
Tropical Storm Tracking
New forecast layout! Learn more

10-Day Weather Forecast

Advertisements
Track Severe Weather on mobile